Time;durP1;ratioP1;P1;durP2;ratioP2;P2;SDS_P1;SDS_P2;PMS_P1;PMS_P2;Temp;Humidity;BMP_temperature;BMP_pressure;BME280_temperature;BME280_humidity;BME280_pressure;Samples;Min_cycle;Max_cycle;Signal;HPM_P1;HPM_P2
2022/03/28 00:02:22;;;;;;;12.52;5.90;;;;;;;7.53;38.93;101960.16;5025222;28;20029;-71
2022/03/28 00:04:47;;;;;;;28.55;6.35;;;;;;;7.52;39.06;101942.72;5055597;28;20510;-71
2022/03/28 00:10:35;;;;;;;20.02;6.82;;;;;;;7.72;38.71;101951.28;5036492;28;20056;-72
2022/03/28 00:13:00;;;;;;;31.90;6.78;;;;;;;7.81;38.27;101946.38;5038927;28;20454;-74
2022/03/28 00:15:26;;;;;;;36.50;7.00;;;;;;;7.61;38.40;101948.28;5031168;28;20431;-73
2022/03/28 00:17:51;;;;;;;12.80;5.82;;;;;;;7.74;38.41;101955.72;5025855;28;20038;-71
2022/03/28 00:20:18;;;;;;;10.90;6.03;;;;;;;7.78;38.23;101956.75;5026616;28;20041;-71
2022/03/28 00:32:48;;;;;;;12.05;5.90;;;;;;;7.57;38.02;101959.44;5049242;28;20558;-71
2022/03/28 00:35:13;;;;;;;14.70;4.95;;;;;;;7.40;38.49;101944.03;5047174;28;20045;-71
2022/03/28 00:38:19;;;;;;;10.95;5.55;;;;;;;7.07;38.91;101963.63;5049844;28;20037;-71
2022/03/28 00:47:11;;;;;;;15.88;5.90;;;;;;;6.56;38.74;101943.34;5047751;28;20044;-72
2022/03/28 00:49:37;;;;;;;12.20;5.60;;;;;;;7.24;38.07;101959.06;5046797;28;20493;-72
2022/03/28 00:52:04;;;;;;;15.10;6.47;;;;;;;7.18;37.70;101938.81;5028808;28;20032;-72
2022/03/28 00:57:50;;;;;;;25.13;5.95;;;;;;;7.11;37.81;101934.19;5046283;28;20057;-72
2022/03/28 01:00:16;;;;;;;11.40;5.50;;;;;;;7.27;36.67;101941.78;5049454;28;20139;-73
2022/03/28 01:02:42;;;;;;;25.30;5.50;;;;;;;7.02;36.53;101944.28;5063432;28;20464;-72
2022/03/28 01:05:08;;;;;;;14.93;5.63;;;;;;;6.90;36.36;101937.75;5063954;28;20055;-72
2022/03/28 01:07:34;;;;;;;13.50;5.07;;;;;;;6.88;35.91;101942.03;5069462;28;20110;-72
2022/03/28 01:10:01;;;;;;;16.65;5.40;;;;;;;6.90;35.21;101937.75;5078084;28;20372;-74
2022/03/28 01:12:27;;;;;;;18.98;5.32;;;;;;;7.19;34.98;101938.00;5065402;28;20028;-71
2022/03/28 01:14:54;;;;;;;15.05;5.45;;;;;;;6.77;35.06;101935.50;5066793;28;20040;-72
2022/03/28 01:20:04;;;;;;;14.13;5.10;;;;;;;7.00;35.42;101935.50;5063579;28;20047;-72
2022/03/28 01:22:30;;;;;;;15.35;5.40;;;;;;;6.91;34.28;101933.44;5067773;28;20456;-72
2022/03/28 01:24:59;;;;;;;28.42;5.13;;;;;;;6.86;34.31;101937.56;5070450;28;20052;-73
2022/03/28 01:27:25;;;;;;;27.70;5.60;;;;;;;6.96;34.20;101955.38;5069676;28;20067;-71
2022/03/28 01:29:50;;;;;;;13.65;5.20;;;;;;;7.05;35.02;101949.63;5068844;28;20075;-73
2022/03/28 01:32:16;;;;;;;19.20;6.20;;;;;;;6.75;34.67;101950.19;5055137;28;20512;-73
2022/03/28 01:34:41;;;;;;;14.10;6.57;;;;;;;6.64;34.07;101949.75;5033729;28;20052;-73
2022/03/28 01:37:07;;;;;;;16.15;5.05;;;;;;;6.02;34.69;101943.69;5051534;28;20044;-73
2022/03/28 01:39:33;;;;;;;19.23;4.38;;;;;;;5.79;34.93;101953.06;5050109;28;20465;-72
2022/03/28 01:41:58;;;;;;;14.35;5.07;;;;;;;6.34;34.86;101944.16;5048382;28;20045;-72
2022/03/28 01:44:25;;;;;;;13.13;4.72;;;;;;;5.61;35.82;101950.50;5042291;28;20049;-72
2022/03/28 01:46:51;;;;;;;7.68;4.47;;;;;;;5.49;35.99;101957.78;5025916;28;20064;-72
2022/03/28 01:49:18;;;;;;;18.00;5.00;;;;;;;5.55;35.09;101945.06;5026804;28;20037;-72
2022/03/28 01:51:46;;;;;;;10.05;5.07;;;;;;;5.58;35.10;101960.81;5006595;28;20033;-72
2022/03/28 01:54:12;;;;;;;12.02;4.72;;;;;;;5.89;35.04;101955.22;5027316;28;23142;-72
2022/03/28 01:56:39;;;;;;;16.38;5.40;;;;;;;5.86;34.21;101952.50;5041402;28;20035;-73
2022/03/28 01:59:06;;;;;;;11.05;4.07;;;;;;;6.21;33.73;101950.56;5028802;28;20089;-72
2022/03/28 02:01:32;;;;;;;16.40;4.38;;;;;;;5.45;34.16;101941.13;5037010;28;21772;-72
2022/03/28 02:03:57;;;;;;;8.73;4.50;;;;;;;5.20;34.08;101957.34;5051032;28;20033;-72
2022/03/28 02:06:24;;;;;;;7.05;3.60;;;;;;;5.15;33.94;101937.09;5052035;28;20396;-72
2022/03/28 02:08:50;;;;;;;10.23;4.85;;;;;;;5.15;34.10;101942.31;5029457;28;20160;-73
2022/03/28 02:11:16;;;;;;;9.63;4.20;;;;;;;5.34;33.97;101949.25;5042249;28;20124;-72
2022/03/28 02:13:42;;;;;;;10.70;4.35;;;;;;;4.91;34.08;101935.13;5024974;28;20045;-72
2022/03/28 02:16:08;;;;;;;14.15;3.47;;;;;;;5.05;33.99;101938.38;5029765;28;20032;-72
2022/03/28 02:18:33;;;;;;;11.85;3.85;;;;;;;5.68;33.76;101947.38;5032074;28;20032;-72
2022/03/28 02:20:59;;;;;;;12.65;4.38;;;;;;;5.62;33.88;101938.38;5028542;28;20079;-72
2022/03/28 02:23:25;;;;;;;10.32;3.88;;;;;;;5.66;33.39;101938.59;5040077;28;20122;-72
2022/03/28 02:25:52;;;;;;;9.23;3.45;;;;;;;5.41;33.73;101949.63;5031317;28;20037;-72
2022/03/28 02:28:18;;;;;;;11.43;3.53;;;;;;;5.14;33.98;101946.63;5028912;28;20115;-73
2022/03/28 02:30:44;;;;;;;6.82;3.88;;;;;;;5.04;34.42;101941.81;5047102;28;20036;-73
2022/03/28 02:33:10;;;;;;;16.33;4.10;;;;;;;4.84;34.74;101946.94;5019454;28;20497;-73
2022/03/28 02:35:36;;;;;;;14.90;4.63;;;;;;;4.64;35.02;101939.91;5040247;28;20051;-73
2022/03/28 02:38:02;;;;;;;19.40;3.70;;;;;;;4.47;35.36;101939.06;5036764;28;20041;-73
2022/03/28 02:40:32;;;;;;;11.93;4.80;;;;;;;4.45;35.63;101948.53;5028497;28;20103;-73
2022/03/28 02:42:58;;;;;;;12.90;4.45;;;;;;;4.41;35.76;101947.47;5016110;28;20029;-72
2022/03/28 02:45:25;;;;;;;14.93;3.67;;;;;;;4.46;36.01;101947.69;5037946;28;20095;-72
2022/03/28 02:47:50;;;;;;;8.10;4.93;;;;;;;4.59;35.95;101952.69;5018038;28;20509;-73
2022/03/28 02:50:16;;;;;;;13.40;4.03;;;;;;;4.11;37.08;101944.22;5026007;28;20057;-72
2022/03/28 02:52:41;;;;;;;9.27;4.55;;;;;;;3.90;37.64;101963.88;5032226;28;20571;-72
2022/03/28 02:55:07;;;;;;;9.13;2.85;;;;;;;3.82;37.71;101953.09;5012962;28;20037;-72
2022/03/28 02:57:34;;;;;;;11.50;5.82;;;;;;;3.47;38.65;101962.50;5044691;28;20033;-72
2022/03/28 02:59:59;;;;;;;17.38;4.07;;;;;;;3.47;38.21;101969.41;5043911;28;20070;-72
2022/03/28 03:02:26;;;;;;;19.05;5.20;;;;;;;3.16;38.85;101966.03;5040461;28;20365;-73
2022/03/28 03:04:52;;;;;;;20.58;4.97;;;;;;;3.03;39.25;101958.38;5033918;28;20517;-72
2022/03/28 03:07:18;;;;;;;10.75;3.53;;;;;;;2.97;39.61;101947.66;5026094;28;20048;-72
2022/03/28 03:09:44;;;;;;;20.10;5.07;;;;;;;2.87;39.54;101961.81;5026581;28;20541;-72
2022/03/28 03:12:11;;;;;;;12.32;4.47;;;;;;;2.79;39.98;101952.72;5028008;28;20120;-72
2022/03/28 03:14:36;;;;;;;9.98;4.70;;;;;;;2.87;40.04;101950.56;5024068;28;20114;-72
2022/03/28 03:17:02;;;;;;;9.50;4.35;;;;;;;2.87;39.84;101953.16;5036951;28;20485;-72
2022/03/28 03:19:28;;;;;;;5.68;3.35;;;;;;;2.82;39.77;101959.78;5042463;28;20444;-73
2022/03/28 03:21:54;;;;;;;12.00;5.65;;;;;;;2.50;40.25;101959.72;5028276;28;20067;-72
2022/03/28 03:24:19;;;;;;;31.88;5.03;;;;;;;2.42;40.64;101955.78;5025380;28;20025;-72
2022/03/28 03:26:45;;;;;;;13.48;3.80;;;;;;;2.50;40.56;101938.97;5045874;28;20037;-72
2022/03/28 03:29:11;;;;;;;6.82;4.13;;;;;;;2.98;40.51;101956.34;5047056;28;20126;-73
2022/03/28 03:31:37;;;;;;;6.80;3.30;;;;;;;2.65;40.72;101954.53;5051779;28;20060;-72
2022/03/28 03:34:35;;;;;;;8.80;6.00;;;;;;;2.61;40.37;101949.97;5056267;28;20067;-73
2022/03/28 03:37:01;;;;;;;7.75;3.03;;;;;;;2.30;41.10;101949.91;5020169;28;20033;-73
2022/03/28 03:39:27;;;;;;;9.20;3.70;;;;;;;2.30;41.41;101957.69;5015935;28;20029;-73
2022/03/28 03:41:53;;;;;;;10.95;3.80;;;;;;;2.12;41.46;101954.88;4990172;28;20601;-73
2022/03/28 03:44:19;;;;;;;12.43;4.68;;;;;;;2.27;41.51;101966.16;5014913;28;20080;-73
2022/03/28 03:46:45;;;;;;;16.23;4.40;;;;;;;2.19;41.78;101964.81;5016330;28;20450;-74
2022/03/28 03:49:10;;;;;;;9.50;3.72;;;;;;;2.17;41.95;101952.56;5018066;28;20073;-73
2022/03/28 03:51:36;;;;;;;16.65;4.50;;;;;;;2.27;41.19;101958.41;5008216;28;20042;-73
2022/03/28 03:54:02;;;;;;;12.25;4.68;;;;;;;2.21;41.64;101963.22;5015684;28;20208;-73
2022/03/28 03:56:28;;;;;;;9.05;3.35;;;;;;;2.05;42.12;101965.69;5008342;28;20125;-72
2022/03/28 03:58:58;;;;;;;17.15;5.93;;;;;;;2.13;41.67;101974.81;5016309;28;20060;-73
2022/03/28 04:02:01;;;;;;;13.23;5.70;;;;;;;2.41;40.97;101958.28;5010335;28;20556;-72
2022/03/28 04:05:21;;;;;;;13.02;6.60;;;;;;;2.08;41.30;101961.59;5012351;28;20033;-72
2022/03/28 04:07:47;;;;;;;16.65;6.95;;;;;;;2.10;41.31;101957.38;5013269;28;20128;-73
2022/03/28 04:10:12;;;;;;;15.43;5.78;;;;;;;1.96;42.23;101962.56;5017399;28;20368;-75
2022/03/28 04:12:39;;;;;;;14.65;3.90;;;;;;;1.88;42.17;101965.56;4990315;28;20454;-74
2022/03/28 04:15:05;;;;;;;17.85;5.90;;;;;;;1.80;42.55;101952.97;5007320;28;20592;-71
2022/03/28 04:17:42;;;;;;;10.48;5.95;;;;;;;1.85;42.64;101973.16;5009572;28;20129;-73
2022/03/28 04:20:09;;;;;;;26.25;5.47;;;;;;;1.89;42.41;101975.09;5020021;28;20151;-74
2022/03/28 04:22:35;;;;;;;27.42;4.68;;;;;;;2.03;42.08;101973.34;5004755;28;20037;-73
2022/03/28 04:25:00;;;;;;;13.40;5.75;;;;;;;2.14;41.66;101958.47;5011818;28;20548;-72
2022/03/28 04:27:26;;;;;;;14.52;7.93;;;;;;;2.25;41.50;101974.66;5023697;28;20022;-73
2022/03/28 04:29:51;;;;;;;11.25;5.90;;;;;;;2.22;41.12;101967.56;5007637;28;20128;-72
2022/03/28 04:32:17;;;;;;;12.82;5.53;;;;;;;2.25;41.27;101972.94;5018422;28;20156;-72
2022/03/28 04:34:42;;;;;;;20.25;8.45;;;;;;;2.37;41.21;101966.72;5032508;28;20037;-72
2022/03/28 04:37:08;;;;;;;10.23;5.90;;;;;;;2.34;41.25;101962.22;5043848;28;20049;-72
2022/03/28 04:39:33;;;;;;;14.88;8.48;;;;;;;2.20;41.11;101961.44;5044693;28;20035;-73
2022/03/28 04:41:59;;;;;;;10.70;5.53;;;;;;;2.30;40.84;101971.53;5047175;28;20044;-74
2022/03/28 04:44:24;;;;;;;16.65;6.80;;;;;;;2.30;40.90;101955.97;5047330;28;20118;-74
2022/03/28 04:46:50;;;;;;;20.88;9.20;;;;;;;2.51;40.52;101965.81;5023567;28;20083;-74
2022/03/28 04:49:15;;;;;;;31.33;5.97;;;;;;;2.54;40.71;101956.50;5043483;28;20057;-73
2022/03/28 04:51:41;;;;;;;14.38;7.30;;;;;;;2.52;40.12;101962.41;5047609;28;20384;-73
2022/03/28 04:54:07;;;;;;;12.02;5.28;;;;;;;2.70;40.08;101976.41;5047197;28;20041;-72
2022/03/28 04:56:34;;;;;;;13.88;6.88;;;;;;;2.65;39.96;101974.38;5044633;28;20525;-73
2022/03/28 04:59:00;;;;;;;20.40;6.80;;;;;;;2.68;40.09;101970.25;5039448;28;20049;-73
2022/03/28 05:01:25;;;;;;;17.35;7.13;;;;;;;2.46;40.46;101975.03;5050813;28;20537;-72
2022/03/28 05:03:51;;;;;;;16.65;9.63;;;;;;;2.51;40.65;101983.94;5063640;28;20024;-72
2022/03/28 05:06:16;;;;;;;31.38;9.43;;;;;;;2.37;40.39;101977.06;5063942;28;20027;-74
2022/03/28 05:08:42;;;;;;;22.38;9.07;;;;;;;2.52;40.42;101985.72;5050411;28;20587;-74
2022/03/28 05:11:08;;;;;;;13.13;7.30;;;;;;;2.83;40.16;101972.81;5038118;28;20118;-73
2022/03/28 05:13:33;;;;;;;11.95;4.93;;;;;;;2.80;40.31;101976.94;5033930;28;20158;-72
2022/03/28 05:15:59;;;;;;;13.63;6.63;;;;;;;2.88;40.21;101978.25;5043402;28;20025;-72
2022/03/28 05:18:25;;;;;;;14.38;6.22;;;;;;;3.27;39.86;101978.69;5046547;28;20041;-73
2022/03/28 05:20:51;;;;;;;15.73;7.03;;;;;;;3.14;40.34;101979.72;5035974;28;20420;-72
2022/03/28 05:23:16;;;;;;;14.85;8.27;;;;;;;3.30;40.21;101973.66;5044759;28;20136;-72
2022/03/28 05:25:43;;;;;;;41.95;10.82;;;;;;;3.43;40.60;101983.91;5045752;28;20045;-73
2022/03/28 05:28:09;;;;;;;15.15;7.53;;;;;;;3.55;40.00;101994.06;5046594;28;20036;-73
2022/03/28 05:30:35;;;;;;;29.15;11.77;;;;;;;3.86;39.40;101991.38;5054381;28;20087;-73
2022/03/28 05:33:01;;;;;;;24.83;11.43;;;;;;;4.42;38.32;101972.66;5046781;28;20139;-74
2022/03/28 05:35:27;;;;;;;16.83;8.05;;;;;;;5.44;37.14;101982.72;5042463;28;20071;-74
2022/03/28 05:38:18;;;;;;;15.65;9.05;;;;;;;5.76;36.20;101971.16;5044828;28;20051;-73
2022/03/28 05:40:43;;;;;;;36.50;11.70;;;;;;;5.65;35.60;101962.84;5043543;28;20039;-74
2022/03/28 05:43:09;;;;;;;18.33;10.07;;;;;;;5.74;35.09;101972.81;5041440;28;20037;-74
2022/03/28 05:45:36;;;;;;;26.17;11.18;;;;;;;6.33;34.60;101966.72;5046230;28;20155;-73
2022/03/28 05:48:03;;;;;;;27.27;10.20;;;;;;;6.55;33.42;101962.41;5044699;28;20128;-73
2022/03/28 05:50:29;;;;;;;25.23;10.18;;;;;;;7.08;32.80;101963.69;5042673;28;20045;-73
2022/03/28 05:52:54;;;;;;;23.10;11.38;;;;;;;7.24;32.42;101954.72;5043880;28;20464;-72
2022/03/28 05:55:46;;;;;;;19.42;9.48;;;;;;;6.86;33.18;101964.56;5046022;28;20166;-73
2022/03/28 05:58:12;;;;;;;46.08;16.40;;;;;;;7.38;32.78;101957.88;5045017;28;20078;-73
2022/03/28 06:00:38;;;;;;;25.77;12.05;;;;;;;7.35;32.61;101944.69;5048103;28;20108;-74
2022/03/28 06:03:04;;;;;;;16.25;9.73;;;;;;;8.90;30.57;101960.59;5042783;28;20048;-73
2022/03/28 06:06:18;;;;;;;26.00;11.00;;;;;;;8.62;30.26;101959.69;5043871;28;20056;-73
2022/03/28 06:08:44;;;;;;;27.13;10.73;;;;;;;8.94;30.37;101959.81;5042322;28;20053;-72
2022/03/28 06:11:10;;;;;;;17.63;9.40;;;;;;;9.71;28.96;101949.91;5041178;28;20040;-72
2022/03/28 06:13:35;;;;;;;16.77;9.13;;;;;;;9.09;29.76;101951.56;5042618;28;20535;-74
2022/03/28 06:16:04;;;;;;;26.48;10.27;;;;;;;9.44;29.32;101944.78;5041589;28;20025;-73
2022/03/28 06:18:30;;;;;;;33.00;11.15;;;;;;;7.67;31.26;101960.69;5052173;28;20111;-74
2022/03/28 06:20:55;;;;;;;17.15;9.50;;;;;;;8.03;31.37;101968.97;5044585;28;20151;-73
2022/03/28 06:23:21;;;;;;;24.17;10.13;;;;;;;8.32;30.91;101971.72;5042652;28;20373;-74
2022/03/28 06:25:47;;;;;;;29.15;8.60;;;;;;;7.95;31.37;101958.22;5043709;28;20496;-74
2022/03/28 06:28:13;;;;;;;27.75;10.65;;;;;;;8.26;31.46;101951.44;5031953;28;20381;-73
2022/03/28 06:30:38;;;;;;;19.02;9.13;;;;;;;8.45;30.71;101956.50;5046098;28;20029;-73
2022/03/28 06:33:41;;;;;;;25.58;11.15;;;;;;;8.61;30.24;101947.41;5042350;28;20057;-72
2022/03/28 06:36:07;;;;;;;24.98;10.27;;;;;;;8.78;30.12;101947.09;5052454;28;20040;-88
2022/03/28 06:38:32;;;;;;;21.23;9.15;;;;;;;8.62;29.91;101946.59;5056657;28;20056;-85
2022/03/28 06:40:58;;;;;;;22.60;9.15;;;;;;;9.16;30.15;101950.03;5061531;28;20060;-86
2022/03/28 06:43:24;;;;;;;32.45;10.63;;;;;;;8.74;29.59;101940.00;5050289;28;20052;-86
2022/03/28 06:45:53;;;;;;;19.75;8.68;;;;;;;9.04;29.66;101934.84;5075272;28;20487;-84
2022/03/28 06:48:20;;;;;;;19.45;9.13;;;;;;;9.20;29.58;101936.16;5064595;28;20025;-80
2022/03/28 06:50:46;;;;;;;18.75;8.35;;;;;;;9.41;29.12;101926.34;5070943;28;20040;-86
2022/03/28 06:53:12;;;;;;;20.90;8.45;;;;;;;9.60;29.10;101934.72;5067926;28;20032;-89
2022/03/28 06:55:38;;;;;;;16.55;7.82;;;;;;;9.80;29.01;101927.44;5065559;28;20443;-75
2022/03/28 06:58:05;;;;;;;21.60;9.13;;;;;;;9.85;29.62;101939.81;5068393;28;20087;-83
2022/03/28 07:00:47;;;;;;;22.92;8.85;;;;;;;9.92;28.87;101933.00;5066648;28;20021;-78
2022/03/28 07:03:12;;;;;;;14.07;8.27;;;;;;;9.74;28.31;101938.66;5066119;28;20106;-78
2022/03/28 07:05:38;;;;;;;27.63;8.65;;;;;;;9.69;28.57;101934.97;5051658;28;20484;-74
2022/03/28 07:08:12;;;;;;;21.52;8.30;;;;;;;9.99;28.18;101937.56;5049276;28;20067;-74
2022/03/28 07:10:38;;;;;;;17.42;7.75;;;;;;;9.89;28.27;101925.06;5046288;28;20037;-73
2022/03/28 07:13:04;;;;;;;16.17;7.25;;;;;;;9.94;28.59;101919.09;5048930;28;20037;-73
2022/03/28 07:15:30;;;;;;;17.50;7.60;;;;;;;9.70;28.55;101926.28;5048750;28;20052;-75
2022/03/28 07:18:02;;;;;;;11.98;6.68;;;;;;;9.75;28.39;101915.94;5045175;28;20124;-74
2022/03/28 07:20:30;;;;;;;23.87;8.67;;;;;;;9.81;28.38;101910.84;5047821;28;20124;-74
2022/03/28 07:22:56;;;;;;;11.90;6.93;;;;;;;9.81;28.50;101916.09;5046802;28;20472;-75
2022/03/28 07:25:23;;;;;;;18.88;7.32;;;;;;;10.05;28.11;101914.13;5041363;28;20095;-75
2022/03/28 07:27:50;;;;;;;43.22;8.43;;;;;;;10.30;28.18;101909.53;5047023;28;20033;-75
2022/03/28 07:30:17;;;;;;;21.30;6.70;;;;;;;10.39;27.95;101907.16;5046184;28;20078;-76
2022/03/28 07:32:44;;;;;;;20.77;6.80;;;;;;;10.49;26.82;101890.81;5031950;28;20049;-73
2022/03/28 07:35:12;;;;;;;14.02;6.25;;;;;;;10.70;26.30;101895.69;5031024;28;20084;-74
2022/03/28 07:37:39;;;;;;;8.38;4.95;;;;;;;10.78;26.25;101896.72;5038986;28;20431;-75
2022/03/28 07:40:06;;;;;;;16.35;5.55;;;;;;;10.80;25.88;101886.25;5013580;28;20036;-73
2022/03/28 07:42:33;;;;;;;26.17;6.65;;;;;;;11.06;26.01;101889.47;5030738;28;20021;-76
2022/03/28 07:44:59;;;;;;;24.27;5.13;;;;;;;11.31;25.75;101866.34;5039071;28;20445;-76
2022/03/28 07:47:48;;;;;;;9.63;5.30;;;;;;;11.03;25.69;101878.91;5040064;28;20133;-74
2022/03/28 07:50:13;;;;;;;22.70;5.65;;;;;;;10.96;25.87;101861.25;5034840;28;20041;-75
2022/03/28 07:52:40;;;;;;;15.80;5.55;;;;;;;11.05;25.77;101871.03;5038404;28;20388;-75
2022/03/28 07:55:07;;;;;;;19.38;5.43;;;;;;;11.34;25.76;101869.03;5031902;28;20017;-75
2022/03/28 07:57:34;;;;;;;18.27;5.03;;;;;;;11.43;25.82;101863.97;5021972;28;20025;-71
2022/03/28 08:00:00;;;;;;;13.48;4.28;;;;;;;11.54;25.07;101851.94;5039786;28;20505;-75
2022/03/28 08:02:26;;;;;;;13.75;4.40;;;;;;;10.81;25.29;101858.25;5032525;28;20045;-74
2022/03/28 08:04:51;;;;;;;10.07;4.45;;;;;;;11.10;25.57;101856.28;5014181;28;20060;-74
2022/03/28 08:07:16;;;;;;;12.77;5.28;;;;;;;11.50;24.73;101850.09;5027734;28;20489;-74
2022/03/28 08:09:43;;;;;;;13.57;5.13;;;;;;;11.98;25.15;101851.84;5037722;28;20033;-73
2022/03/28 08:12:10;;;;;;;26.08;5.22;;;;;;;11.46;24.47;101856.13;5028982;28;20044;-77
2022/03/28 08:14:36;;;;;;;16.00;4.80;;;;;;;11.77;25.26;101843.56;5040191;28;20033;-77
2022/03/28 08:17:03;;;;;;;8.75;3.85;;;;;;;12.07;25.10;101845.88;5028172;28;20878;-76
2022/03/28 08:19:29;;;;;;;22.70;6.75;;;;;;;12.35;24.74;101839.31;5037822;28;20044;-77
2022/03/28 08:21:57;;;;;;;10.63;4.13;;;;;;;12.22;24.68;101835.63;5028172;28;20037;-75
2022/03/28 08:24:22;;;;;;;34.28;5.05;;;;;;;11.39;24.89;101839.34;5022796;28;20116;-75
2022/03/28 08:26:49;;;;;;;20.05;5.22;;;;;;;11.67;25.02;101829.38;5021214;28;20128;-77
2022/03/28 08:29:15;;;;;;;11.25;4.85;;;;;;;11.51;25.19;101843.06;5024773;28;20056;-78
2022/03/28 08:31:41;;;;;;;21.95;5.28;;;;;;;11.28;25.50;101843.50;5028891;28;20045;-74
2022/03/28 08:34:07;;;;;;;27.10;5.72;;;;;;;11.58;25.65;101831.81;5043568;28;20087;-73
2022/03/28 08:36:34;;;;;;;10.52;4.80;;;;;;;11.52;25.88;101815.91;5046314;28;20024;-74
2022/03/28 08:38:59;;;;;;;18.80;5.47;;;;;;;11.81;25.19;101825.22;5044397;28;20127;-74
2022/03/28 08:41:27;;;;;;;18.58;5.47;;;;;;;11.61;25.24;101811.75;5044538;28;20455;-75
2022/03/28 08:43:53;;;;;;;13.88;5.43;;;;;;;12.11;24.61;101816.13;5027639;28;20037;-74
2022/03/28 08:46:19;;;;;;;18.40;4.00;;;;;;;12.02;24.64;101823.88;5043244;28;20041;-74
2022/03/28 08:48:45;;;;;;;13.98;4.97;;;;;;;12.43;24.68;101818.38;5043030;28;20048;-74
2022/03/28 08:51:13;;;;;;;11.57;4.13;;;;;;;12.71;24.18;101803.84;5039924;28;20039;-75
2022/03/28 08:53:40;;;;;;;16.42;4.28;;;;;;;12.63;24.64;101800.25;5044638;28;20041;-76
2022/03/28 08:56:09;;;;;;;12.38;3.88;;;;;;;12.65;24.83;101795.88;5045821;28;20037;-74
2022/03/28 08:58:35;;;;;;;13.68;4.82;;;;;;;12.38;24.47;101794.59;5048594;28;20477;-74
2022/03/28 09:01:03;;;;;;;19.45;5.18;;;;;;;12.03;24.96;101792.34;5038324;28;20037;-74
2022/03/28 09:03:47;;;;;;;12.52;5.82;;;;;;;11.96;25.57;101773.78;5045035;28;20100;-74
2022/03/28 09:06:36;;;;;;;13.30;5.32;;;;;;;12.62;25.22;101793.22;5039037;28;20034;-74
2022/03/28 09:09:13;;;;;;;11.75;6.03;;;;;;;12.22;24.80;101783.00;5038325;28;20564;-75
2022/03/28 09:11:42;;;;;;;20.90;5.57;;;;;;;12.58;24.61;101781.75;5043293;28;20082;-75
2022/03/28 09:14:10;;;;;;;18.75;5.25;;;;;;;12.32;24.81;101777.88;5043630;28;20542;-76
2022/03/28 09:16:36;;;;;;;17.65;5.97;;;;;;;12.92;24.62;101779.53;5043016;28;20044;-74
2022/03/28 09:19:19;;;;;;;13.10;6.53;;;;;;;13.10;25.13;101771.84;5044838;28;20499;-74
2022/03/28 09:21:50;;;;;;;19.83;5.45;;;;;;;12.58;24.54;101762.44;5044061;28;20028;-75
2022/03/28 09:24:15;;;;;;;19.83;6.60;;;;;;;12.84;24.30;101761.00;5044658;28;20123;-74
2022/03/28 09:26:41;;;;;;;14.98;4.38;;;;;;;13.39;24.33;101752.88;5042688;28;20136;-73
2022/03/28 09:29:06;;;;;;;17.70;4.90;;;;;;;12.55;25.02;101758.00;5045456;28;20049;-72
2022/03/28 09:31:36;;;;;;;13.60;5.18;;;;;;;13.15;24.72;101753.47;5044012;28;20056;-73
2022/03/28 09:34:13;;;;;;;20.05;6.25;;;;;;;13.60;24.29;101751.31;5045510;28;20101;-74
2022/03/28 09:36:50;;;;;;;10.77;5.10;;;;;;;13.64;23.99;101748.72;5042194;28;20108;-75
2022/03/28 09:39:18;;;;;;;14.40;5.43;;;;;;;13.05;24.61;101751.59;5045620;28;20056;-75
2022/03/28 09:42:05;;;;;;;23.73;5.53;;;;;;;12.77;25.14;101756.53;5041456;28;20049;-74
2022/03/28 09:44:42;;;;;;;19.30;7.20;;;;;;;12.72;24.71;101739.78;5043124;28;20033;-74
2022/03/28 09:47:16;;;;;;;17.88;4.47;;;;;;;13.31;24.50;101744.00;5038555;28;20191;-74
2022/03/28 09:49:44;;;;;;;15.13;5.00;;;;;;;13.17;25.14;101728.00;5045448;28;20452;-75
2022/03/28 09:52:18;;;;;;;19.13;5.53;;;;;;;12.52;25.36;101731.63;5042133;28;20061;-74
2022/03/28 09:54:56;;;;;;;17.70;5.97;;;;;;;12.99;25.60;101709.34;5040025;28;20121;-73
2022/03/28 09:58:17;;;;;;;21.48;5.10;;;;;;;13.09;25.03;101716.53;5030601;28;20377;-73
2022/03/28 10:00:48;;;;;;;13.73;4.05;;;;;;;12.82;25.28;101712.69;5043063;28;20037;-73
2022/03/28 10:03:14;;;;;;;14.05;5.95;;;;;;;13.01;25.37;101707.63;5046391;28;20124;-73
2022/03/28 10:05:40;;;;;;;18.45;5.75;;;;;;;13.20;25.13;101701.66;5044865;28;20037;-74
2022/03/28 10:08:38;;;;;;;14.52;5.97;;;;;;;13.71;24.81;101703.03;5041590;28;20064;-73
2022/03/28 10:11:05;;;;;;;16.30;5.53;;;;;;;14.13;24.84;101693.66;5041953;28;20052;-73
2022/03/28 10:13:30;;;;;;;14.77;5.55;;;;;;;14.10;24.95;101687.50;5043092;28;20086;-73
2022/03/28 10:15:58;;;;;;;19.60;7.15;;;;;;;14.55;24.86;101686.00;5044282;28;20025;-75
2022/03/28 10:18:34;;;;;;;13.98;5.35;;;;;;;14.29;24.51;101693.75;5047384;28;20062;-73
2022/03/28 10:21:03;;;;;;;14.80;6.32;;;;;;;13.73;25.37;101689.88;5036026;28;20397;-73
2022/03/28 10:23:34;;;;;;;17.33;5.50;;;;;;;13.84;25.07;101669.75;5044864;28;20365;-73
2022/03/28 10:26:02;;;;;;;8.57;5.15;;;;;;;14.52;25.11;101672.75;5038923;28;20039;-74
2022/03/28 10:28:27;;;;;;;16.17;7.25;;;;;;;15.10;24.67;101674.69;5044541;28;20094;-72
2022/03/28 10:31:18;;;;;;;20.27;6.40;;;;;;;14.53;24.43;101664.81;5044439;28;20045;-74
2022/03/28 10:33:49;;;;;;;17.23;5.63;;;;;;;14.29;25.55;101654.16;5037767;28;20114;-80
2022/03/28 10:36:23;;;;;;;18.08;6.53;;;;;;;15.12;24.55;101647.38;5039092;28;20418;-79
2022/03/28 10:38:53;;;;;;;22.75;7.95;;;;;;;15.37;25.35;101629.75;5028885;28;20073;-78
2022/03/28 10:41:20;;;;;;;12.95;5.45;;;;;;;14.52;24.71;101641.94;5042185;28;20079;-78
2022/03/28 10:43:47;;;;;;;14.07;8.30;;;;;;;14.38;25.55;101635.72;5040922;28;21180;-79
2022/03/28 10:46:14;;;;;;;16.98;5.88;;;;;;;14.48;24.71;101616.38;5039196;28;20037;-81
2022/03/28 10:48:46;;;;;;;31.25;6.45;;;;;;;15.00;25.39;101618.28;5041390;28;20423;-79
2022/03/28 10:51:24;;;;;;;16.15;4.57;;;;;;;15.11;24.52;101618.31;5042916;28;20048;-79
2022/03/28 10:53:56;;;;;;;10.55;5.63;;;;;;;15.86;24.71;101602.38;5041814;28;20077;-80
2022/03/28 10:56:36;;;;;;;13.43;5.68;;;;;;;16.87;23.97;101599.28;5040262;28;20045;-79
2022/03/28 10:59:07;;;;;;;8.82;4.53;;;;;;;15.89;23.70;101610.31;5040177;28;20523;-79
2022/03/28 11:01:35;;;;;;;14.18;5.22;;;;;;;17.22;23.65;101584.00;5044830;28;20037;-76
2022/03/28 11:04:04;;;;;;;17.73;5.68;;;;;;;15.78;24.84;101586.53;5043111;28;20033;-74
2022/03/28 11:06:50;;;;;;;11.07;5.53;;;;;;;16.00;23.99;101582.03;5044679;28;20040;-75
2022/03/28 11:09:51;;;;;;;20.63;5.18;;;;;;;15.60;24.56;101560.06;5044515;28;20485;-76
2022/03/28 11:12:30;;;;;;;19.50;7.10;;;;;;;15.89;24.16;101553.84;5059728;28;20044;-76
2022/03/28 11:14:57;;;;;;;20.67;6.35;;;;;;;15.83;24.30;101562.69;5056792;28;20053;-76
2022/03/28 11:17:25;;;;;;;14.70;5.60;;;;;;;16.32;24.27;101561.59;5061609;28;20045;-76
2022/03/28 11:19:56;;;;;;;34.50;7.18;;;;;;;15.89;24.26;101543.25;5054993;28;20549;-75
2022/03/28 11:22:47;;;;;;;20.33;5.82;;;;;;;16.08;24.34;101549.34;5040208;28;20110;-75
2022/03/28 11:25:41;;;;;;;18.00;7.20;;;;;;;17.25;23.69;101534.41;5043668;28;20044;-76
2022/03/28 11:28:29;;;;;;;17.00;6.55;;;;;;;16.66;23.65;101528.69;5046428;28;20480;-75
2022/03/28 11:31:02;;;;;;;17.73;6.50;;;;;;;16.79;24.67;101516.28;5063782;28;20071;-74
2022/03/28 11:33:36;;;;;;;17.30;6.47;;;;;;;17.52;23.71;101511.16;5056413;28;20033;-76
2022/03/28 11:39:51;;;;;;;40.83;8.85;;;;;;;18.46;23.58;101502.00;5030567;28;20041;-75
2022/03/28 11:42:50;;;;;;;21.83;8.13;;;;;;;16.78;24.24;101500.34;5029618;28;20054;-75
2022/03/28 11:48:35;;;;;;;14.07;7.20;;;;;;;17.47;24.07;101466.09;5043841;28;20095;-78
2022/03/28 11:51:13;;;;;;;28.10;9.13;;;;;;;18.50;22.91;101466.50;5051180;28;20045;-80
2022/03/28 12:00:34;;;;;;;19.25;8.30;;;;;;;17.72;24.67;101458.72;5011264;28;20068;-80
2022/03/28 12:03:19;;;;;;;19.35;7.85;;;;;;;18.28;23.79;101453.53;5028588;28;20037;-79
2022/03/28 12:05:47;;;;;;;13.70;6.95;;;;;;;16.86;24.42;101448.19;5037489;28;20040;-81
2022/03/28 12:08:18;;;;;;;33.50;8.35;;;;;;;17.03;24.35;101454.19;5030163;28;20037;-78
2022/03/28 12:10:51;;;;;;;18.63;8.13;;;;;;;18.28;24.11;101426.97;5018726;28;20038;-80
2022/03/28 12:13:18;;;;;;;23.95;9.15;;;;;;;16.71;24.86;101438.56;5030743;28;20045;-75